Time;durP1;ratioP1;P1;durP2;ratioP2;P2;SDS_P1;SDS_P2;PMS_P1;PMS_P2;Temp;Humidity;BMP_temperature;BMP_pressure;BME280_temperature;BME280_humidity;BME280_pressure;Samples;Min_cycle;Max_cycle;Signal;HPM_P1;HPM_P2
2022/11/04 00:01:02;;;;;;;3.20;0.73;;;10.50;99.90;;;;;;5109156;28;20653;-85
2022/11/04 00:03:29;;;;;;;0.40;0.40;;;10.50;99.90;;;;;;5108613;28;20632;-85
2022/11/04 00:06:00;;;;;;;0.60;0.50;;;10.50;99.90;;;;;;5108544;28;20647;-85
2022/11/04 00:08:27;;;;;;;0.80;0.80;;;10.40;99.90;;;;;;5109154;28;20634;-85
2022/11/04 00:13:39;;;;;;;0.73;0.50;;;10.40;99.90;;;;;;5108633;28;20643;-85
2022/11/04 00:18:50;;;;;;;0.80;0.63;;;10.40;99.90;;;;;;5112358;27;20649;-85
2022/11/04 00:29:32;;;;;;;0.73;0.63;;;10.20;99.90;;;;;;5114151;27;20670;-86
2022/11/04 00:34:44;;;;;;;0.90;0.43;;;10.30;99.90;;;;;;5123741;27;20848;-85
2022/11/04 00:37:12;;;;;;;0.40;0.40;;;10.30;99.90;;;;;;5115733;27;21033;-85
2022/11/04 00:39:39;;;;;;;0.67;0.50;;;10.30;99.90;;;;;;5126224;27;20756;-85
2022/11/04 00:42:06;;;;;;;1.20;0.80;;;10.30;99.90;;;;;;5126979;27;20651;-86
2022/11/04 00:44:33;;;;;;;0.83;0.67;;;10.30;99.90;;;;;;5112821;27;20598;-85
2022/11/04 00:47:00;;;;;;;1.83;0.60;;;10.30;99.90;;;;;;5116799;27;20638;-85
2022/11/04 00:49:27;;;;;;;0.50;0.20;;;10.30;99.90;;;;;;5118485;27;20616;-85
2022/11/04 00:51:54;;;;;;;0.40;0.40;;;10.20;99.90;;;;;;5124197;27;20619;-86
2022/11/04 00:54:22;;;;;;;0.70;0.60;;;10.20;99.90;;;;;;5116848;27;21225;-86
2022/11/04 00:56:49;;;;;;;0.93;0.50;;;10.20;99.90;;;;;;5107986;28;20647;-85
2022/11/04 00:59:16;;;;;;;0.80;0.80;;;10.20;99.90;;;;;;5108853;28;20662;-84
2022/11/04 01:01:43;;;;;;;0.40;0.30;;;10.10;99.90;;;;;;5108250;28;20748;-84
2022/11/04 01:04:10;;;;;;;0.40;0.40;;;10.20;99.90;;;;;;5109253;28;20652;-85
2022/11/04 01:06:37;;;;;;;0.63;0.30;;;10.20;99.90;;;;;;5107362;28;20655;-85
2022/11/04 01:09:07;;;;;;;0.97;0.40;;;10.10;99.90;;;;;;5107847;28;20720;-85
2022/11/04 01:11:35;;;;;;;0.67;0.67;;;10.20;99.90;;;;;;5107971;28;20612;-85
2022/11/04 01:14:02;;;;;;;0.77;0.53;;;10.30;99.90;;;;;;5108033;28;21237;-85
2022/11/04 01:16:29;;;;;;;0.47;0.47;;;10.20;99.90;;;;;;5114005;27;20731;-86
2022/11/04 01:18:57;;;;;;;2.40;0.80;;;10.60;99.90;;;;;;5128661;27;20731;-85
2022/11/04 01:21:24;;;;;;;0.90;0.70;;;10.30;99.90;;;;;;5126172;27;20675;-85
2022/11/04 01:23:51;;;;;;;0.80;0.80;;;10.30;99.90;;;;;;5125701;27;20619;-85
2022/11/04 01:26:20;;;;;;;5.50;0.70;;;10.30;99.90;;;;;;5127276;27;20658;-85
2022/11/04 01:28:48;;;;;;;0.50;0.50;;;10.20;99.90;;;;;;5114133;28;20647;-85
2022/11/04 01:31:17;;;;;;;0.30;0.30;;;10.30;99.90;;;;;;5125302;27;21187;-85
2022/11/04 01:33:44;;;;;;;0.60;0.40;;;10.20;99.90;;;;;;5116921;27;20618;-85
2022/11/04 01:36:12;;;;;;;0.67;0.57;;;10.10;99.90;;;;;;5129494;27;20610;-85
2022/11/04 01:38:39;;;;;;;0.43;0.30;;;10.10;99.90;;;;;;5125788;27;20648;-85
2022/11/04 01:41:07;;;;;;;0.60;0.60;;;10.10;99.90;;;;;;5120195;28;20693;-85
2022/11/04 01:43:45;;;;;;;0.43;0.43;;;10.10;99.90;;;;;;5114761;27;20611;-86
2022/11/04 01:46:26;;;;;;;0.77;0.47;;;10.10;99.90;;;;;;5126622;27;20704;-85
2022/11/04 01:48:56;;;;;;;1.37;1.00;;;10.20;99.90;;;;;;5130393;27;20615;-85
2022/11/04 01:51:23;;;;;;;0.47;0.47;;;10.50;99.90;;;;;;5121267;27;20634;-86
2022/11/04 01:53:53;;;;;;;0.50;0.37;;;10.20;99.90;;;;;;5119238;27;20611;-85
2022/11/04 01:56:20;;;;;;;0.43;0.40;;;10.20;99.90;;;;;;5115637;27;21235;-85
2022/11/04 01:58:51;;;;;;;0.70;0.53;;;10.20;99.90;;;;;;5128461;27;20616;-85
2022/11/04 02:01:20;;;;;;;0.83;0.47;;;10.20;99.90;;;;;;5125553;27;20647;-85
2022/11/04 02:03:50;;;;;;;0.50;0.30;;;10.00;99.90;;;;;;5116920;27;21086;-85
2022/11/04 02:06:20;;;;;;;1.13;0.97;;;10.10;99.90;;;;;;5118644;27;20663;-86
2022/11/04 02:08:48;;;;;;;0.40;0.37;;;10.10;99.90;;;;;;5124802;27;20620;-85
2022/11/04 02:13:56;;;;;;;0.53;0.47;;;10.10;99.90;;;;;;5118312;27;20615;-85
2022/11/04 02:16:39;;;;;;;0.67;0.60;;;10.10;99.90;;;;;;5131055;27;21226;-85
2022/11/04 02:19:24;;;;;;;0.40;0.20;;;10.00;99.90;;;;;;5129578;27;20992;-86
2022/11/04 02:22:22;;;;;;;0.80;0.67;;;10.00;99.90;;;;;;5110775;28;20615;-85
2022/11/04 02:25:05;;;;;;;0.30;0.20;;;10.00;99.90;;;;;;5111496;28;20737;-85
2022/11/04 02:27:44;;;;;;;0.43;0.33;;;10.00;99.90;;;;;;5110052;28;20657;-86
2022/11/04 02:30:15;;;;;;;0.30;0.30;;;11.00;99.90;;;;;;5110670;28;20691;-86
2022/11/04 02:33:06;;;;;;;0.40;0.20;;;10.00;99.90;;;;;;5110235;28;20615;-86
2022/11/04 02:35:43;;;;;;;0.43;0.43;;;9.90;99.90;;;;;;5110796;28;20675;-86
2022/11/04 02:38:16;;;;;;;0.30;0.20;;;9.90;99.90;;;;;;5127299;27;20671;-86
2022/11/04 02:40:50;;;;;;;0.37;0.30;;;9.90;99.90;;;;;;5114959;27;20623;-86
2022/11/04 02:43:23;;;;;;;0.40;0.40;;;9.90;99.90;;;;;;5128860;27;21289;-86
2022/11/04 02:45:57;;;;;;;0.30;0.20;;;9.80;99.90;;;;;;5110565;27;20986;-85
2022/11/04 02:48:30;;;;;;;0.97;0.73;;;9.70;99.90;;;;;;5114267;27;21285;-86
2022/11/04 02:51:04;;;;;;;0.40;0.30;;;9.80;99.90;;;;;;5110589;28;21361;-84
2022/11/04 02:53:36;;;;;;;0.50;0.30;;;9.80;99.90;;;;;;5113549;27;20619;-86
2022/11/04 02:56:05;;;;;;;1.00;0.43;;;9.80;99.90;;;;;;5112079;27;20635;-85
2022/11/04 02:58:37;;;;;;;0.40;0.27;;;9.70;99.90;;;;;;5115390;27;20639;-86
2022/11/04 03:01:07;;;;;;;0.40;0.30;;;9.90;99.90;;;;;;5109073;28;20682;-85
2022/11/04 03:03:38;;;;;;;0.43;0.30;;;9.70;99.90;;;;;;5110869;27;20952;-86
2022/11/04 03:06:09;;;;;;;0.83;0.30;;;9.70;99.90;;;;;;5116314;27;20658;-86
2022/11/04 03:08:41;;;;;;;0.30;0.30;;;9.70;99.90;;;;;;5120700;27;20708;-86
2022/11/04 03:11:12;;;;;;;1.10;0.50;;;9.70;99.90;;;;;;5118114;27;20646;-85
2022/11/04 03:13:42;;;;;;;0.50;0.30;;;9.70;99.90;;;;;;5111306;27;20616;-85
2022/11/04 03:16:14;;;;;;;3.03;0.60;;;9.60;99.90;;;;;;5117969;27;20631;-86
2022/11/04 03:18:49;;;;;;;0.40;0.30;;;9.60;99.90;;;;;;5125675;27;20623;-86
2022/11/04 03:21:18;;;;;;;0.80;0.30;;;9.70;99.90;;;;;;5110064;28;21288;-85
2022/11/04 03:23:45;;;;;;;0.50;0.40;;;9.60;99.90;;;;;;5118355;27;21065;-85
2022/11/04 03:26:19;;;;;;;0.60;0.60;;;9.50;99.90;;;;;;5110323;27;20647;-85
2022/11/04 03:28:54;;;;;;;0.97;0.43;;;9.50;99.90;;;;;;5125011;27;21215;-85
2022/11/04 03:31:27;;;;;;;0.40;0.30;;;9.50;99.90;;;;;;5110070;28;20718;-86
2022/11/04 03:33:56;;;;;;;0.40;0.30;;;9.40;99.90;;;;;;5114062;27;20630;-85
2022/11/04 03:36:23;;;;;;;0.50;0.43;;;9.40;99.90;;;;;;5118152;27;20627;-86
2022/11/04 03:38:52;;;;;;;0.40;0.20;;;9.40;99.90;;;;;;5117121;27;20699;-86
2022/11/04 03:41:28;;;;;;;3.60;0.70;;;9.40;99.90;;;;;;5127912;27;21195;-85
2022/11/04 03:43:58;;;;;;;0.30;0.20;;;9.90;99.90;;;;;;5111694;27;20717;-86
2022/11/04 03:46:29;;;;;;;0.43;0.43;;;9.30;99.90;;;;;;5127699;27;21395;-86
2022/11/04 03:48:58;;;;;;;0.50;0.30;;;9.30;99.90;;;;;;5124625;27;20625;-87
2022/11/04 03:51:25;;;;;;;0.60;0.40;;;9.30;99.90;;;;;;5130127;27;20614;-86
2022/11/04 03:53:52;;;;;;;1.80;0.50;;;9.20;99.90;;;;;;5112386;27;20624;-85
2022/11/04 03:56:57;;;;;;;5.70;0.80;;;9.30;99.90;;;;;;5109440;27;20860;-86
2022/11/04 03:59:58;;;;;;;0.30;0.20;;;9.20;99.90;;;;;;5094532;27;21206;-86
2022/11/04 04:02:35;;;;;;;0.50;0.40;;;9.30;99.90;;;;;;5113187;27;20688;-86
2022/11/04 04:05:05;;;;;;;0.63;0.60;;;9.40;99.90;;;;;;5109778;27;20681;-86
2022/11/04 04:07:35;;;;;;;0.40;0.27;;;9.10;99.90;;;;;;5116159;27;20651;-85
2022/11/04 04:10:37;;;;;;;0.30;0.20;;;9.10;99.90;;;;;;5123759;27;20615;-85
2022/11/04 04:13:00;;;;;;;0.50;0.43;;;9.00;99.90;;;;;;5128838;27;20625;-85
2022/11/04 04:15:36;;;;;;;0.30;0.20;;;9.00;99.90;;;;;;5113207;27;20650;-86
2022/11/04 04:18:09;;;;;;;0.60;0.50;;;8.90;99.90;;;;;;5126973;27;20619;-86
2022/11/04 04:20:40;;;;;;;0.30;0.20;;;8.90;99.90;;;;;;5129424;27;20630;-86
2022/11/04 04:28:38;;;;;;;0.40;0.30;;;8.90;99.90;;;;;;5125430;27;20635;-86
2022/11/04 04:31:06;;;;;;;0.47;0.30;;;8.90;99.90;;;;;;5115711;27;20622;-86
2022/11/04 04:33:34;;;;;;;0.63;0.40;;;9.00;99.90;;;;;;5120309;27;20623;-86
2022/11/04 04:36:01;;;;;;;0.40;0.33;;;9.30;99.90;;;;;;5109079;28;20991;-86
2022/11/04 04:46:55;;;;;;;0.93;0.43;;;8.90;99.90;;;;;;5128707;27;20685;-85
2022/11/04 04:49:33;;;;;;;0.43;0.43;;;8.80;99.90;;;;;;5118217;27;20612;-86
2022/11/04 04:52:01;;;;;;;0.30;0.30;;;9.00;99.90;;;;;;5115142;27;20627;-85
2022/11/04 04:54:28;;;;;;;0.60;0.57;;;8.70;99.90;;;;;;5114973;27;20619;-85
2022/11/04 04:56:55;;;;;;;0.50;0.30;;;8.70;99.90;;;;;;5108142;28;20627;-85
2022/11/04 04:59:22;;;;;;;1.40;0.60;;;8.70;99.90;;;;;;5112870;27;21262;-85
2022/11/04 05:01:49;;;;;;;0.40;0.30;;;8.70;99.90;;;;;;5113808;27;20689;-85
2022/11/04 05:04:16;;;;;;;0.30;0.20;;;8.80;99.90;;;;;;5108383;28;20971;-85
2022/11/04 05:06:45;;;;;;;0.40;0.40;;;8.70;99.90;;;;;;5115828;27;20687;-85
2022/11/04 05:09:11;;;;;;;0.30;0.27;;;9.20;99.90;;;;;;5125419;27;20615;-85
2022/11/04 05:11:38;;;;;;;0.90;0.50;;;8.60;99.90;;;;;;5127364;27;20611;-85
2022/11/04 05:14:05;;;;;;;0.50;0.40;;;8.70;99.90;;;;;;5125501;27;20615;-85
2022/11/04 05:16:32;;;;;;;2.43;0.53;;;8.50;99.90;;;;;;5121491;27;20631;-86
2022/11/04 05:18:59;;;;;;;0.37;0.30;;;9.10;99.90;;;;;;5107169;28;20604;-85
2022/11/04 05:21:26;;;;;;;0.60;0.37;;;8.60;99.90;;;;;;5106642;28;20739;-86
2022/11/04 05:23:54;;;;;;;0.50;0.50;;;8.40;99.90;;;;;;5106642;28;20662;-85
2022/11/04 05:26:21;;;;;;;0.83;0.60;;;8.60;99.90;;;;;;5107908;28;21426;-85
2022/11/04 05:28:48;;;;;;;0.73;0.60;;;8.70;99.90;;;;;;5107065;28;20619;-86
2022/11/04 05:31:15;;;;;;;0.50;0.40;;;8.70;99.90;;;;;;5107593;28;20612;-86
2022/11/04 05:33:41;;;;;;;0.67;0.33;;;8.70;99.90;;;;;;5106720;28;21283;-86
2022/11/04 05:36:10;;;;;;;0.97;0.30;;;8.60;99.90;;;;;;5107951;28;21238;-85
2022/11/04 05:38:37;;;;;;;0.90;0.90;;;8.60;99.90;;;;;;5106982;28;20604;-86
2022/11/04 05:41:08;;;;;;;0.63;0.63;;;8.50;99.90;;;;;;5107200;28;21027;-88
2022/11/04 05:43:35;;;;;;;1.73;0.57;;;8.60;99.90;;;;;;5106033;28;20703;-88
2022/11/04 05:46:03;;;;;;;0.50;0.40;;;8.60;99.90;;;;;;5106836;28;20626;-87
2022/11/04 05:48:30;;;;;;;1.20;0.47;;;8.40;99.90;;;;;;5118583;27;20762;-87
2022/11/04 05:50:57;;;;;;;0.80;0.53;;;8.50;99.90;;;;;;5125900;27;20659;-87
2022/11/04 05:53:24;;;;;;;0.63;0.57;;;8.40;99.90;;;;;;5120267;27;20614;-84
2022/11/04 05:55:50;;;;;;;0.50;0.43;;;8.60;99.90;;;;;;5108561;27;20727;-85
2022/11/04 05:58:19;;;;;;;0.40;0.40;;;8.40;99.90;;;;;;5117804;27;20719;-85
2022/11/04 06:00:45;;;;;;;0.80;0.63;;;8.40;99.90;;;;;;5122277;27;20619;-85
2022/11/04 06:03:12;;;;;;;0.40;0.40;;;8.20;99.90;;;;;;5122723;27;20625;-85
2022/11/04 06:05:39;;;;;;;1.63;0.50;;;8.20;99.90;;;;;;5123215;27;20610;-85
2022/11/04 06:08:06;;;;;;;0.60;0.40;;;8.20;99.90;;;;;;5123542;28;20652;-85
2022/11/04 06:10:33;;;;;;;0.37;0.37;;;9.50;99.90;;;;;;5109896;28;20673;-84
2022/11/04 06:13:00;;;;;;;0.40;0.40;;;8.20;99.90;;;;;;5117417;28;21036;-86
2022/11/04 06:15:28;;;;;;;0.73;0.70;;;8.30;99.90;;;;;;5126568;27;20683;-84
2022/11/04 06:17:55;;;;;;;0.47;0.47;;;8.40;99.90;;;;;;5125967;28;20603;-87
2022/11/04 06:20:22;;;;;;;0.97;0.97;;;8.40;99.90;;;;;;5126251;27;20615;-86
2022/11/04 06:22:49;;;;;;;0.50;0.40;;;8.40;99.90;;;;;;5122004;27;20683;-85
2022/11/04 06:25:16;;;;;;;0.80;0.73;;;8.30;99.90;;;;;;5120783;27;20658;-85
2022/11/04 06:27:43;;;;;;;0.50;0.40;;;8.40;99.90;;;;;;5118069;27;20686;-85
2022/11/04 06:30:11;;;;;;;0.63;0.63;;;8.40;99.90;;;;;;5114856;28;21305;-85
2022/11/04 06:32:46;;;;;;;1.13;0.97;;;8.50;99.90;;;;;;5116151;28;20622;-89
2022/11/04 06:35:20;;;;;;;1.10;0.50;;;8.60;99.90;;;;;;5108787;27;20985;-89
2022/11/04 06:37:51;;;;;;;0.70;0.70;;;;;;;;;;5121733;27;20729;-87
2022/11/04 06:40:18;;;;;;;0.60;0.60;;;8.50;99.90;;;;;;5124002;27;20701;-87
2022/11/04 06:42:45;;;;;;;0.93;0.93;;;8.50;99.90;;;;;;5117224;27;20783;-86
2022/11/04 06:45:12;;;;;;;0.53;0.40;;;8.50;99.90;;;;;;5116037;27;20647;-85
2022/11/04 06:47:41;;;;;;;0.77;0.77;;;8.50;99.90;;;;;;5115605;27;20768;-86
2022/11/04 06:50:12;;;;;;;0.80;0.70;;;8.60;99.90;;;;;;5120180;27;20662;-86
2022/11/04 06:52:42;;;;;;;0.70;0.70;;;8.70;99.90;;;;;;5122631;27;21111;-85
2022/11/04 06:55:10;;;;;;;0.40;0.40;;;8.60;99.90;;;;;;5119620;27;20686;-85
2022/11/04 06:57:37;;;;;;;0.70;0.60;;;8.70;99.90;;;;;;5113627;27;20666;-84
2022/11/04 07:00:04;;;;;;;0.40;0.30;;;8.70;99.90;;;;;;5113708;27;20692;-84
2022/11/04 07:02:31;;;;;;;0.70;0.20;;;8.80;99.90;;;;;;5110943;27;20746;-84
2022/11/04 07:04:58;;;;;;;0.60;0.50;;;9.00;99.90;;;;;;5110034;27;20631;-84
2022/11/04 07:07:29;;;;;;;0.63;0.63;;;8.80;99.90;;;;;;5128159;27;20658;-84
2022/11/04 07:09:56;;;;;;;0.63;0.63;;;8.70;99.90;;;;;;5119753;27;21233;-84
2022/11/04 07:12:23;;;;;;;0.87;0.87;;;8.80;99.90;;;;;;5115765;27;20611;-84
2022/11/04 07:14:51;;;;;;;0.93;0.70;;;8.80;99.90;;;;;;5119839;27;20996;-84
2022/11/04 07:17:18;;;;;;;1.60;1.10;;;9.50;99.90;;;;;;5119725;27;21054;-84
2022/11/04 07:19:44;;;;;;;1.77;1.30;;;8.60;99.90;;;;;;5116667;27;20618;-84
2022/11/04 07:22:11;;;;;;;2.23;1.43;;;8.70;99.90;;;;;;5122604;27;20622;-84
2022/11/04 07:24:40;;;;;;;1.23;1.23;;;8.70;99.90;;;;;;5119065;27;20619;-84
2022/11/04 07:27:07;;;;;;;3.40;1.23;;;8.60;99.90;;;;;;5122847;27;20614;-84
2022/11/04 07:29:33;;;;;;;0.90;0.70;;;8.60;99.90;;;;;;5129911;27;21011;-84
2022/11/04 07:32:00;;;;;;;1.03;0.83;;;8.60;99.90;;;;;;5115426;27;21420;-84
2022/11/04 07:34:27;;;;;;;1.33;1.17;;;8.60;99.90;;;;;;5124095;27;20633;-83
2022/11/04 07:36:54;;;;;;;0.93;0.80;;;9.40;99.90;;;;;;5130324;27;20702;-84
2022/11/04 07:39:21;;;;;;;1.43;0.70;;;8.70;99.90;;;;;;5110375;27;20991;-84
2022/11/04 07:41:49;;;;;;;0.90;0.87;;;8.80;99.90;;;;;;5119362;27;20633;-84
2022/11/04 07:44:16;;;;;;;2.30;1.83;;;8.80;99.90;;;;;;5117802;27;20611;-84
2022/11/04 07:46:43;;;;;;;0.90;0.90;;;8.90;99.90;;;;;;5120684;27;20619;-83
2022/11/04 07:49:10;;;;;;;0.50;0.50;;;;;;;;;;5115259;27;20761;-84
2022/11/04 07:51:37;;;;;;;2.30;1.20;;;8.90;99.90;;;;;;5127684;27;20619;-84
2022/11/04 07:54:04;;;;;;;0.50;0.50;;;9.00;99.90;;;;;;5111894;27;20722;-83
2022/11/04 07:56:31;;;;;;;0.80;0.80;;;9.00;99.90;;;;;;5112758;27;20616;-84
2022/11/04 07:58:59;;;;;;;0.73;0.73;;;8.90;99.90;;;;;;5115984;27;20618;-85
2022/11/04 08:01:26;;;;;;;2.40;1.33;;;8.90;99.90;;;;;;5122895;27;20623;-84
2022/11/04 08:03:53;;;;;;;1.60;1.50;;;9.00;99.90;;;;;;5110202;27;20651;-84
2022/11/04 08:06:21;;;;;;;1.07;0.70;;;9.00;99.90;;;;;;5108964;28;21102;-84
2022/11/04 08:08:48;;;;;;;1.00;0.90;;;9.00;99.90;;;;;;5110952;27;20700;-84
2022/11/04 08:11:17;;;;;;;1.17;1.03;;;9.10;99.90;;;;;;5110196;27;20616;-84
2022/11/04 08:13:45;;;;;;;1.13;1.10;;;9.20;99.90;;;;;;5121511;27;20731;-84
2022/11/04 08:16:15;;;;;;;0.70;0.70;;;9.20;99.90;;;;;;5127596;27;21041;-85
2022/11/04 08:18:42;;;;;;;0.73;0.70;;;9.20;99.90;;;;;;5115816;27;21076;-83
2022/11/04 08:21:10;;;;;;;1.30;1.20;;;9.10;99.90;;;;;;5112742;27;20623;-83
2022/11/04 08:23:38;;;;;;;0.70;0.70;;;9.30;99.90;;;;;;5123371;27;20714;-84
2022/11/04 08:26:08;;;;;;;1.53;1.43;;;9.40;99.90;;;;;;5127137;27;20627;-84
2022/11/04 08:28:35;;;;;;;0.97;0.97;;;9.40;99.90;;;;;;5127760;27;21315;-84
2022/11/04 08:31:05;;;;;;;1.03;0.90;;;9.50;99.90;;;;;;5119571;27;20607;-84
2022/11/04 08:33:34;;;;;;;0.40;0.40;;;9.50;99.90;;;;;;5113219;27;21041;-83
2022/11/04 08:36:04;;;;;;;0.30;0.30;;;9.70;99.90;;;;;;5110358;27;20648;-84
2022/11/04 08:38:31;;;;;;;0.50;0.50;;;9.60;99.90;;;;;;5123236;27;21269;-83
2022/11/04 08:40:58;;;;;;;0.50;0.50;;;9.60;99.90;;;;;;5114659;27;21023;-84
2022/11/04 08:43:25;;;;;;;1.07;0.87;;;9.70;99.90;;;;;;5122569;27;20651;-83
2022/11/04 08:45:53;;;;;;;0.63;0.63;;;9.70;99.90;;;;;;5109371;28;20620;-84
2022/11/04 08:48:20;;;;;;;1.00;0.80;;;9.70;99.90;;;;;;5121063;27;20717;-84
2022/11/04 08:50:51;;;;;;;0.50;0.50;;;9.80;99.90;;;;;;5125996;27;20639;-84
2022/11/04 08:53:18;;;;;;;0.30;0.30;;;10.00;99.90;;;;;;5126098;27;20623;-84
2022/11/04 08:55:45;;;;;;;0.57;0.57;;;10.00;99.90;;;;;;5116339;27;21082;-84
2022/11/04 08:58:12;;;;;;;0.63;0.63;;;10.20;99.90;;;;;;5118009;27;20623;-83
2022/11/04 09:00:39;;;;;;;0.50;0.50;;;10.00;99.90;;;;;;5116119;27;20612;-84
2022/11/04 09:03:07;;;;;;;0.50;0.30;;;10.00;99.90;;;;;;5117978;27;20647;-85
2022/11/04 09:05:40;;;;;;;0.60;0.60;;;10.10;99.90;;;;;;5106892;28;21209;-84
2022/11/04 09:08:08;;;;;;;0.60;0.60;;;10.20;99.90;;;;;;5107359;28;20779;-84
2022/11/04 09:10:35;;;;;;;0.50;0.40;;;10.10;99.90;;;;;;5108048;28;20623;-84
2022/11/04 09:13:02;;;;;;;1.73;1.63;;;10.10;99.90;;;;;;5113623;27;20979;-84
2022/11/04 09:15:29;;;;;;;2.77;0.60;;;10.10;99.90;;;;;;5124451;27;20663;-84
2022/11/04 09:17:56;;;;;;;1.63;0.97;;;10.20;99.90;;;;;;5117545;27;20668;-84
2022/11/04 09:20:26;;;;;;;2.30;1.50;;;10.20;99.90;;;;;;5110514;27;21129;-84
2022/11/04 09:22:53;;;;;;;2.63;1.60;;;10.30;99.90;;;;;;5123262;27;20999;-84
2022/11/04 09:25:24;;;;;;;1.13;1.00;;;10.30;99.90;;;;;;5109671;28;20607;-84
2022/11/04 09:27:51;;;;;;;1.13;1.03;;;;;;;;;;5111043;27;20714;-84
2022/11/04 09:30:19;;;;;;;2.10;0.80;;;10.40;99.90;;;;;;5118583;28;20619;-84
2022/11/04 09:32:46;;;;;;;0.90;0.90;;;10.50;99.90;;;;;;5109639;27;20723;-83
2022/11/04 09:35:15;;;;;;;1.30;0.73;;;;;;;;;;5107823;28;21204;-84
2022/11/04 09:37:41;;;;;;;1.10;0.57;;;10.50;99.90;;;;;;5114866;28;20623;-84
2022/11/04 09:40:12;;;;;;;0.80;0.80;;;10.50;99.90;;;;;;5127623;27;20680;-84
2022/11/04 09:42:54;;;;;;;0.60;0.60;;;10.50;99.90;;;;;;5119399;28;20624;-84
2022/11/04 09:45:27;;;;;;;0.70;0.70;;;11.00;99.90;;;;;;5111873;28;21299;-84
2022/11/04 09:47:59;;;;;;;0.70;0.63;;;10.50;99.90;;;;;;5114470;27;20619;-84
2022/11/04 09:50:31;;;;;;;0.70;0.70;;;10.50;99.90;;;;;;5128464;27;21004;-84
2022/11/04 09:53:05;;;;;;;0.70;0.60;;;10.60;99.90;;;;;;5114389;27;20667;-84
2022/11/04 09:55:39;;;;;;;1.20;1.10;;;10.50;99.90;;;;;;5114316;28;20642;-84
2022/11/04 09:58:12;;;;;;;1.50;0.77;;;10.70;99.90;;;;;;5126067;27;20627;-83
2022/11/04 10:00:41;;;;;;;1.77;1.60;;;10.60;99.90;;;;;;5110448;28;20644;-84
2022/11/04 10:03:20;;;;;;;2.30;1.20;;;10.80;99.90;;;;;;5114401;28;20614;-83
2022/11/04 10:05:59;;;;;;;1.07;1.00;;;10.70;99.90;;;;;;5106291;28;21008;-83
2022/11/04 10:08:50;;;;;;;1.13;1.10;;;10.90;99.90;;;;;;5112209;28;21102;-82
2022/11/04 10:11:25;;;;;;;0.70;0.40;;;10.90;99.90;;;;;;5122935;27;20614;-83
2022/11/04 10:14:10;;;;;;;0.40;0.40;;;10.90;99.90;;;;;;5119198;27;20622;-83
2022/11/04 10:16:51;;;;;;;1.67;0.70;;;11.00;99.90;;;;;;5113614;27;21513;-83
2022/11/04 10:19:31;;;;;;;0.80;0.40;;;10.90;99.90;;;;;;5116808;27;20630;-83
2022/11/04 10:22:04;;;;;;;0.50;0.30;;;11.00;99.90;;;;;;5114190;27;20631;-83
2022/11/04 10:24:41;;;;;;;0.80;0.50;;;11.00;99.90;;;;;;5122128;27;20611;-83
2022/11/04 10:27:14;;;;;;;0.50;0.50;;;11.20;99.90;;;;;;5118579;27;20603;-83
2022/11/04 10:29:44;;;;;;;0.97;0.40;;;11.10;99.40;;;;;;5122082;27;20666;-83
2022/11/04 10:32:17;;;;;;;0.70;0.50;;;11.10;99.70;;;;;;5119633;27;20624;-82
2022/11/04 10:34:48;;;;;;;0.73;0.60;;;11.10;99.90;;;;;;5114714;27;20645;-83
2022/11/04 10:37:15;;;;;;;4.90;0.50;;;11.20;99.90;;;;;;5116876;27;21205;-84
2022/11/04 10:39:44;;;;;;;0.80;0.80;;;11.70;99.20;;;;;;5118777;27;20940;-83
2022/11/04 10:42:13;;;;;;;0.73;0.67;;;11.20;99.10;;;;;;5124677;27;20615;-84
2022/11/04 10:44:40;;;;;;;0.40;0.40;;;11.30;99.10;;;;;;5117398;27;21006;-83
2022/11/04 10:47:20;;;;;;;3.70;0.53;;;11.30;98.70;;;;;;5119572;27;20636;-83
2022/11/04 10:50:19;;;;;;;0.50;0.50;;;11.30;98.80;;;;;;5118181;27;20762;-84
2022/11/04 10:52:46;;;;;;;0.90;0.90;;;11.30;99.70;;;;;;5082994;27;20680;-83
2022/11/04 10:55:22;;;;;;;0.70;0.70;;;11.30;98.90;;;;;;5118761;27;21109;-83
2022/11/04 10:57:49;;;;;;;0.60;0.57;;;11.40;99.50;;;;;;5118291;27;20974;-83
2022/11/04 11:00:35;;;;;;;2.13;0.50;;;11.40;99.10;;;;;;5118888;27;20692;-83
2022/11/04 11:03:21;;;;;;;1.30;1.20;;;11.40;99.00;;;;;;5110100;28;20623;-83
2022/11/04 11:05:49;;;;;;;0.90;0.70;;;11.40;99.00;;;;;;5110646;28;20623;-84
2022/11/04 11:08:29;;;;;;;0.70;0.70;;;11.40;98.50;;;;;;5109820;28;20624;-82
2022/11/04 11:10:56;;;;;;;1.27;0.30;;;11.40;98.50;;;;;;5108705;28;20718;-82
2022/11/04 11:13:28;;;;;;;0.70;0.50;;;11.40;99.30;;;;;;5110130;28;20677;-83
2022/11/04 11:16:07;;;;;;;0.50;0.33;;;11.50;99.20;;;;;;5111554;27;20639;-83
2022/11/04 11:18:37;;;;;;;2.83;0.67;;;11.50;99.30;;;;;;5115870;27;21172;-83
2022/11/04 11:21:08;;;;;;;0.70;0.70;;;11.50;98.50;;;;;;5115136;27;20627;-83
2022/11/04 11:23:41;;;;;;;0.50;0.43;;;11.50;98.00;;;;;;5118808;27;21168;-83
2022/11/04 11:26:10;;;;;;;0.50;0.40;;;11.50;98.30;;;;;;5123277;27;20680;-83
2022/11/04 11:28:39;;;;;;;0.40;0.33;;;11.40;98.60;;;;;;5116795;27;20651;-82
2022/11/04 11:31:15;;;;;;;1.33;0.80;;;11.40;98.80;;;;;;5106021;27;21242;-83
2022/11/04 11:33:51;;;;;;;0.50;0.50;;;11.50;98.60;;;;;;5111274;27;20627;-83
2022/11/04 11:36:21;;;;;;;0.47;0.43;;;11.40;98.80;;;;;;5109856;27;20614;-83
2022/11/04 11:38:59;;;;;;;0.87;0.70;;;11.50;98.70;;;;;;5118689;27;21052;-84
2022/11/04 11:41:33;;;;;;;0.80;0.60;;;11.60;98.10;;;;;;5117890;27;20648;-83
2022/11/04 11:44:17;;;;;;;2.20;0.60;;;11.60;98.30;;;;;;5122228;27;20627;-83
2022/11/04 11:46:53;;;;;;;1.07;0.47;;;11.50;99.00;;;;;;5117421;27;21096;-83
2022/11/04 11:49:27;;;;;;;0.60;0.30;;;11.60;98.50;;;;;;5115719;27;20661;-83
2022/11/04 11:51:55;;;;;;;0.60;0.30;;;11.60;98.40;;;;;;5125268;27;20684;-83
2022/11/04 11:54:28;;;;;;;0.50;0.40;;;11.60;99.40;;;;;;5110112;28;20615;-83
2022/11/04 11:56:56;;;;;;;0.63;0.40;;;11.60;99.00;;;;;;5122900;27;21156;-83
2022/11/04 11:59:31;;;;;;;1.20;1.00;;;11.70;97.50;;;;;;5118106;27;21142;-83
2022/11/04 12:02:12;;;;;;;0.93;0.47;;;11.80;98.80;;;;;;5121787;27;20701;-83
2022/11/04 12:04:40;;;;;;;0.60;0.53;;;11.90;97.70;;;;;;5120246;27;20651;-84
2022/11/04 12:07:16;;;;;;;0.53;0.50;;;11.90;97.90;;;;;;5120359;27;20652;-82
2022/11/04 12:09:53;;;;;;;0.30;0.30;;;11.90;98.40;;;;;;5113271;27;21174;-83
2022/11/04 12:12:34;;;;;;;0.50;0.30;;;12.10;97.40;;;;;;5113234;27;20631;-83
2022/11/04 12:15:28;;;;;;;0.40;0.30;;;12.10;96.60;;;;;;5113419;27;20636;-82
2022/11/04 12:18:09;;;;;;;0.90;0.90;;;12.20;97.20;;;;;;5119007;27;20629;-83
2022/11/04 12:20:47;;;;;;;0.80;0.73;;;12.00;97.10;;;;;;5108943;28;21012;-83
2022/11/04 12:23:22;;;;;;;0.37;0.33;;;12.00;96.50;;;;;;5116157;27;20679;-83
2022/11/04 12:26:05;;;;;;;1.23;0.60;;;12.00;97.00;;;;;;5117022;27;20625;-83
2022/11/04 12:28:45;;;;;;;0.53;0.40;;;12.00;96.60;;;;;;5119579;27;20676;-83
2022/11/04 12:31:20;;;;;;;1.00;0.70;;;11.90;97.60;;;;;;5116055;27;21325;-82
2022/11/04 12:33:55;;;;;;;1.27;0.77;;;11.90;98.10;;;;;;5116072;27;20747;-83
2022/11/04 12:36:53;;;;;;;2.30;0.90;;;11.90;98.20;;;;;;5106188;28;20607;-88
2022/11/04 12:39:34;;;;;;;0.67;0.67;;;11.90;98.60;;;;;;5107129;28;20623;-84
2022/11/04 12:42:10;;;;;;;0.40;0.33;;;11.90;98.40;;;;;;5122709;27;20656;-84
2022/11/04 12:44:41;;;;;;;0.53;0.40;;;12.00;99.00;;;;;;5114434;27;20709;-84
2022/11/04 12:47:29;;;;;;;1.37;0.87;;;11.90;98.40;;;;;;5111882;27;20669;-84
2022/11/04 12:50:22;;;;;;;0.53;0.40;;;11.90;97.90;;;;;;5116899;27;20667;-84
2022/11/04 12:53:12;;;;;;;0.30;0.30;;;11.90;96.80;;;;;;5097102;27;20728;-83
2022/11/04 12:55:48;;;;;;;1.83;0.70;;;11.70;96.40;;;;;;5112544;27;20631;-84
2022/11/04 12:58:25;;;;;;;0.33;0.33;;;11.80;97.10;;;;;;5124533;27;20622;-84
2022/11/04 13:00:57;;;;;;;0.53;0.50;;;12.00;97.40;;;;;;5123648;27;20662;-82
2022/11/04 13:03:30;;;;;;;1.07;0.83;;;11.90;98.10;;;;;;5116523;27;21005;-82
2022/11/04 13:06:03;;;;;;;0.47;0.47;;;12.00;97.60;;;;;;5111031;27;21275;-82
2022/11/04 13:08:38;;;;;;;1.23;0.60;;;12.10;97.50;;;;;;5109149;27;20616;-82
2022/11/04 13:11:21;;;;;;;0.70;0.70;;;12.20;97.30;;;;;;5109631;27;20692;-82
2022/11/04 13:13:55;;;;;;;1.33;1.23;;;12.20;97.30;;;;;;5125906;27;20685;-82
2022/11/04 13:16:22;;;;;;;1.43;0.60;;;12.20;97.10;;;;;;5125896;27;20626;-82
2022/11/04 13:18:50;;;;;;;0.90;0.70;;;12.30;96.90;;;;;;5108098;27;21212;-84
2022/11/04 13:21:21;;;;;;;1.37;0.47;;;12.80;97.30;;;;;;5107704;28;20726;-82
2022/11/04 13:23:54;;;;;;;0.50;0.47;;;12.30;96.20;;;;;;5114596;27;20599;-82
2022/11/04 13:26:22;;;;;;;0.73;0.43;;;12.20;97.10;;;;;;5115588;27;20621;-82
2022/11/04 13:28:58;;;;;;;0.47;0.30;;;12.20;97.20;;;;;;5129805;27;20625;-82
2022/11/04 13:31:35;;;;;;;0.67;0.67;;;12.30;96.10;;;;;;5126834;27;20625;-82
2022/11/04 13:34:09;;;;;;;5.70;1.17;;;12.30;96.20;;;;;;5118917;27;21085;-82
2022/11/04 13:36:42;;;;;;;0.37;0.37;;;12.10;96.60;;;;;;5118229;28;20774;-82
2022/11/04 13:39:18;;;;;;;0.60;0.40;;;12.10;97.60;;;;;;5120114;28;20704;-83
2022/11/04 13:42:14;;;;;;;1.70;0.40;;;12.10;98.10;;;;;;5119380;28;20611;-83
2022/11/04 13:44:44;;;;;;;0.60;0.60;;;11.90;96.40;;;;;;5111582;27;21181;-82
2022/11/04 13:47:19;;;;;;;0.40;0.40;;;11.60;96.80;;;;;;5122791;27;20612;-82